SPKEA EPBC-EPBC
Flight info
| Callsign | SPKEA |
|---|---|
| Flight time | 0h 37m |
| Altitude | 1500 |
| Route | DCT LUQIQ DCT EPBCJ DCT 522706N0205522E STAY1/0012 5231N02103E 5224N02110E DCT EPBCD DCT EPBCP DCT EPBCZ DCT |
| Aircraft | C172/L-SBDGR/C |
Departure
| Time | 2026-05-07 15:20 |
|---|---|
| Airport | Warsaw Babice Airport (EPBC) |
Arrival
| Time | 2026-05-07 15:58 |
|---|---|
| Airport | Warsaw Babice Airport (EPBC) |
| Time | Latitude | Longitude | Altitude | Speed | Heading |
|---|---|---|---|---|---|
| 2026-05-07 15:00 | 52.26736 | 20.90064 | 350 ft | 0 kts | 190° |
| 2026-05-07 15:14 | 52.26725 | 20.90064 | 350 ft | 7 kts | 161° |
| 2026-05-07 15:14 | 52.26702 | 20.90205 | 350 ft | 17 kts | 104° |
| 2026-05-07 15:14 | 52.26673 | 20.90404 | 350 ft | 13 kts | 103° |
| 2026-05-07 15:14 | 52.26654 | 20.90546 | 350 ft | 12 kts | 103° |
| 2026-05-07 15:15 | 52.26637 | 20.90674 | 350 ft | 9 kts | 103° |
| 2026-05-07 15:15 | 52.26663 | 20.90717 | 350 ft | 6 kts | 334° |
| 2026-05-07 15:15 | 52.26719 | 20.90670 | 350 ft | 13 kts | 331° |
| 2026-05-07 15:15 | 52.26803 | 20.90600 | 350 ft | 11 kts | 332° |
| 2026-05-07 15:16 | 52.26856 | 20.90556 | 350 ft | 3 kts | 333° |
| 2026-05-07 15:16 | 52.26859 | 20.90554 | 350 ft | 0 kts | 332° |
| 2026-05-07 15:16 | 52.26892 | 20.90535 | 350 ft | 6 kts | 350° |
| 2026-05-07 15:16 | 52.26931 | 20.90585 | 350 ft | 10 kts | 85° |
| 2026-05-07 15:17 | 52.26910 | 20.90752 | 350 ft | 19 kts | 104° |
| 2026-05-07 15:17 | 52.26874 | 20.91018 | 350 ft | 25 kts | 102° |
| 2026-05-07 15:17 | 52.26837 | 20.91278 | 350 ft | 21 kts | 104° |
| 2026-05-07 15:17 | 52.26808 | 20.91486 | 350 ft | 15 kts | 103° |
| 2026-05-07 15:18 | 52.26781 | 20.91614 | 350 ft | 9 kts | 43° |
| 2026-05-07 15:18 | 52.26794 | 20.91588 | 350 ft | 0 kts | 283° |
| 2026-05-07 15:19 | 52.26799 | 20.91553 | 350 ft | 16 kts | 283° |
| 2026-05-07 15:19 | 52.26860 | 20.91111 | 352 ft | 61 kts | 282° |
| 2026-05-07 15:19 | 52.26967 | 20.90360 | 478 ft | 71 kts | 287° |
| 2026-05-07 15:19 | 52.27092 | 20.89596 | 677 ft | 69 kts | 286° |
| 2026-05-07 15:20 | 52.27187 | 20.88853 | 887 ft | 67 kts | 286° |
| 2026-05-07 15:20 | 52.27293 | 20.88079 | 1021 ft | 73 kts | 288° |
| 2026-05-07 15:20 | 52.27407 | 20.87327 | 1124 ft | 67 kts | 285° |
| 2026-05-07 15:20 | 52.27557 | 20.86622 | 1203 ft | 66 kts | 320° |
| 2026-05-07 15:21 | 52.28023 | 20.86542 | 1266 ft | 71 kts | 8° |
| 2026-05-07 15:21 | 52.28503 | 20.86739 | 1342 ft | 72 kts | 9° |
| 2026-05-07 15:21 | 52.28921 | 20.87154 | 1421 ft | 78 kts | 52° |
| 2026-05-07 15:21 | 52.29251 | 20.87833 | 1489 ft | 75 kts | 39° |
| 2026-05-07 15:22 | 52.29621 | 20.88557 | 1509 ft | 89 kts | 46° |
| 2026-05-07 15:22 | 52.30024 | 20.89381 | 1509 ft | 102 kts | 45° |
| 2026-05-07 15:22 | 52.30497 | 20.90293 | 1517 ft | 109 kts | 44° |
| 2026-05-07 15:22 | 52.31004 | 20.91216 | 1508 ft | 105 kts | 41° |
| 2026-05-07 15:23 | 52.31582 | 20.91848 | 1506 ft | 96 kts | 11° |
| 2026-05-07 15:23 | 52.32227 | 20.92004 | 1509 ft | 92 kts | 3° |
| 2026-05-07 15:23 | 52.32852 | 20.92075 | 1512 ft | 91 kts | 360° |
| 2026-05-07 15:23 | 52.33488 | 20.92059 | 1510 ft | 90 kts | 356° |
| 2026-05-07 15:24 | 52.34114 | 20.92031 | 1512 ft | 89 kts | 356° |
| 2026-05-07 15:24 | 52.34735 | 20.92021 | 1514 ft | 89 kts | 357° |
| 2026-05-07 15:24 | 52.35351 | 20.92032 | 1518 ft | 89 kts | 358° |
| 2026-05-07 15:24 | 52.35978 | 20.92043 | 1517 ft | 89 kts | 356° |
| 2026-05-07 15:25 | 52.36601 | 20.91945 | 1518 ft | 89 kts | 351° |
| 2026-05-07 15:25 | 52.37215 | 20.91861 | 1516 ft | 90 kts | 354° |
| 2026-05-07 15:25 | 52.37839 | 20.91804 | 1517 ft | 90 kts | 355° |
| 2026-05-07 15:25 | 52.38446 | 20.91825 | 1517 ft | 91 kts | 359° |
| 2026-05-07 15:26 | 52.39084 | 20.91898 | 1516 ft | 91 kts | 0° |
| 2026-05-07 15:26 | 52.39710 | 20.91927 | 1516 ft | 90 kts | 356° |
| 2026-05-07 15:26 | 52.40339 | 20.91925 | 1516 ft | 89 kts | 1° |
| 2026-05-07 15:26 | 52.40955 | 20.92019 | 1517 ft | 90 kts | 1° |
| 2026-05-07 15:27 | 52.41582 | 20.92086 | 1517 ft | 90 kts | 360° |
| 2026-05-07 15:27 | 52.42216 | 20.92122 | 1518 ft | 90 kts | 358° |
| 2026-05-07 15:27 | 52.42841 | 20.92100 | 1519 ft | 90 kts | 353° |
| 2026-05-07 15:27 | 52.43469 | 20.92031 | 1519 ft | 90 kts | 356° |
| 2026-05-07 15:28 | 52.44096 | 20.92107 | 1520 ft | 91 kts | 2° |
| 2026-05-07 15:28 | 52.44714 | 20.92365 | 1514 ft | 93 kts | 29° |
| 2026-05-07 15:28 | 52.45056 | 20.93240 | 1516 ft | 96 kts | 72° |
| 2026-05-07 15:28 | 52.45100 | 20.94335 | 1520 ft | 95 kts | 85° |
| 2026-05-07 15:29 | 52.45089 | 20.95413 | 1514 ft | 94 kts | 86° |
| 2026-05-07 15:29 | 52.45072 | 20.96475 | 1514 ft | 93 kts | 86° |
| 2026-05-07 15:29 | 52.45073 | 20.97536 | 1507 ft | 92 kts | 72° |
| 2026-05-07 15:29 | 52.45403 | 20.98350 | 1510 ft | 83 kts | 25° |
| 2026-05-07 15:30 | 52.45931 | 20.98677 | 1510 ft | 80 kts | 8° |
| 2026-05-07 15:30 | 52.46446 | 20.98465 | 1511 ft | 78 kts | 321° |
| 2026-05-07 15:30 | 52.46676 | 20.97658 | 1520 ft | 82 kts | 281° |
| 2026-05-07 15:30 | 52.46683 | 20.96703 | 1520 ft | 83 kts | 275° |
| 2026-05-07 15:31 | 52.46670 | 20.95745 | 1519 ft | 84 kts | 274° |
| 2026-05-07 15:31 | 52.46660 | 20.94792 | 1519 ft | 84 kts | 274° |
| 2026-05-07 15:31 | 52.46752 | 20.93876 | 1514 ft | 80 kts | 305° |
| 2026-05-07 15:31 | 52.47197 | 20.93366 | 1522 ft | 79 kts | 338° |
| 2026-05-07 15:32 | 52.47722 | 20.93094 | 1518 ft | 80 kts | 357° |
| 2026-05-07 15:32 | 52.48228 | 20.93475 | 1517 ft | 86 kts | 41° |
| 2026-05-07 15:32 | 52.48438 | 20.94424 | 1518 ft | 93 kts | 81° |
| 2026-05-07 15:32 | 52.48429 | 20.95500 | 1519 ft | 94 kts | 85° |
| 2026-05-07 15:33 | 52.48380 | 20.96581 | 1519 ft | 94 kts | 86° |
| 2026-05-07 15:33 | 52.48376 | 20.97648 | 1522 ft | 93 kts | 81° |
| 2026-05-07 15:33 | 52.48394 | 20.98716 | 1521 ft | 93 kts | 82° |
| 2026-05-07 15:33 | 52.48395 | 20.99772 | 1517 ft | 94 kts | 81° |
| 2026-05-07 15:34 | 52.48453 | 21.00834 | 1514 ft | 93 kts | 82° |
| 2026-05-07 15:34 | 52.48464 | 21.01902 | 1510 ft | 94 kts | 84° |
| 2026-05-07 15:34 | 52.48473 | 21.02976 | 1520 ft | 93 kts | 83° |
| 2026-05-07 15:34 | 52.48484 | 21.04040 | 1521 ft | 93 kts | 83° |
| 2026-05-07 15:35 | 52.48697 | 21.04985 | 1526 ft | 86 kts | 39° |
| 2026-05-07 15:35 | 52.49200 | 21.05415 | 1530 ft | 82 kts | 14° |
| 2026-05-07 15:35 | 52.49752 | 21.05477 | 1530 ft | 79 kts | 336° |
| 2026-05-07 15:35 | 52.50116 | 21.04833 | 1529 ft | 81 kts | 292° |
| 2026-05-07 15:36 | 52.50158 | 21.03893 | 1527 ft | 84 kts | 275° |
| 2026-05-07 15:36 | 52.50138 | 21.02924 | 1527 ft | 85 kts | 274° |
| 2026-05-07 15:36 | 52.50114 | 21.01955 | 1526 ft | 85 kts | 273° |
| 2026-05-07 15:36 | 52.50091 | 21.00989 | 1519 ft | 86 kts | 274° |
| 2026-05-07 15:37 | 52.50068 | 20.99991 | 1501 ft | 88 kts | 274° |
| 2026-05-07 15:37 | 52.50045 | 20.98989 | 1494 ft | 88 kts | 273° |
| 2026-05-07 15:37 | 52.50023 | 20.97976 | 1494 ft | 87 kts | 274° |
| 2026-05-07 15:37 | 52.49965 | 20.96983 | 1497 ft | 87 kts | 268° |
| 2026-05-07 15:38 | 52.49957 | 20.96007 | 1496 ft | 85 kts | 280° |
| 2026-05-07 15:38 | 52.49981 | 20.95040 | 1506 ft | 84 kts | 272° |
| 2026-05-07 15:38 | 52.49985 | 20.94092 | 1507 ft | 82 kts | 290° |
| 2026-05-07 15:38 | 52.50336 | 20.93422 | 1506 ft | 79 kts | 334° |
| 2026-05-07 15:39 | 52.50876 | 20.93420 | 1502 ft | 83 kts | 19° |
| 2026-05-07 15:39 | 52.51267 | 20.94137 | 1503 ft | 90 kts | 64° |
| 2026-05-07 15:39 | 52.51337 | 20.95181 | 1505 ft | 93 kts | 81° |
| 2026-05-07 15:39 | 52.51348 | 20.96251 | 1502 ft | 94 kts | 83° |
| 2026-05-07 15:40 | 52.51358 | 20.97320 | 1507 ft | 93 kts | 83° |
| 2026-05-07 15:40 | 52.51387 | 20.98401 | 1506 ft | 93 kts | 81° |
| 2026-05-07 15:40 | 52.51419 | 20.99464 | 1500 ft | 93 kts | 81° |
| 2026-05-07 15:40 | 52.51453 | 21.00530 | 1502 ft | 93 kts | 81° |
| 2026-05-07 15:41 | 52.51481 | 21.01588 | 1504 ft | 93 kts | 82° |
| 2026-05-07 15:41 | 52.51497 | 21.02666 | 1510 ft | 93 kts | 83° |
| 2026-05-07 15:41 | 52.51513 | 21.03726 | 1516 ft | 93 kts | 82° |
| 2026-05-07 15:41 | 52.51527 | 21.04775 | 1516 ft | 93 kts | 82° |
| 2026-05-07 15:42 | 52.51522 | 21.05848 | 1509 ft | 94 kts | 85° |
| 2026-05-07 15:42 | 52.51460 | 21.06937 | 1499 ft | 97 kts | 105° |
| 2026-05-07 15:42 | 52.51035 | 21.07801 | 1495 ft | 100 kts | 140° |
| 2026-05-07 15:42 | 52.50461 | 21.08468 | 1490 ft | 101 kts | 144° |
| 2026-05-07 15:43 | 52.49875 | 21.09127 | 1494 ft | 104 kts | 145° |
| 2026-05-07 15:43 | 52.49280 | 21.09796 | 1491 ft | 105 kts | 142° |
| 2026-05-07 15:43 | 52.48671 | 21.10490 | 1491 ft | 106 kts | 148° |
| 2026-05-07 15:43 | 52.48032 | 21.11096 | 1492 ft | 106 kts | 149° |
| 2026-05-07 15:44 | 52.47422 | 21.11769 | 1500 ft | 106 kts | 143° |
| 2026-05-07 15:44 | 52.46816 | 21.12471 | 1499 ft | 107 kts | 139° |
| 2026-05-07 15:44 | 52.46183 | 21.13146 | 1494 ft | 108 kts | 147° |
| 2026-05-07 15:44 | 52.45576 | 21.13867 | 1505 ft | 106 kts | 141° |
| 2026-05-07 15:45 | 52.44952 | 21.14508 | 1515 ft | 106 kts | 153° |
| 2026-05-07 15:45 | 52.44306 | 21.15082 | 1513 ft | 107 kts | 146° |
| 2026-05-07 15:45 | 52.43704 | 21.15783 | 1519 ft | 107 kts | 142° |
| 2026-05-07 15:45 | 52.43097 | 21.16497 | 1519 ft | 107 kts | 139° |
| 2026-05-07 15:46 | 52.41790 | 21.17674 | 1517 ft | 107 kts | 159° |
| 2026-05-07 15:46 | 52.41105 | 21.18156 | 1517 ft | 107 kts | 154° |
| 2026-05-07 15:46 | 52.40422 | 21.18646 | 1516 ft | 107 kts | 153° |
| 2026-05-07 15:47 | 52.39738 | 21.19153 | 1514 ft | 107 kts | 160° |
| 2026-05-07 15:47 | 52.39060 | 21.19629 | 1509 ft | 101 kts | 154° |
| 2026-05-07 15:47 | 52.38428 | 21.20051 | 1501 ft | 95 kts | 161° |
| 2026-05-07 15:47 | 52.37830 | 21.20448 | 1490 ft | 93 kts | 155° |
| 2026-05-07 15:48 | 52.37226 | 21.20855 | 1479 ft | 92 kts | 157° |
| 2026-05-07 15:48 | 52.36637 | 21.21247 | 1473 ft | 92 kts | 155° |
| 2026-05-07 15:48 | 52.36056 | 21.21657 | 1476 ft | 90 kts | 155° |
| 2026-05-07 15:48 | 52.35445 | 21.21948 | 1478 ft | 89 kts | 166° |
| 2026-05-07 15:49 | 52.34846 | 21.22108 | 1491 ft | 86 kts | 180° |
| 2026-05-07 15:49 | 52.34265 | 21.21963 | 1502 ft | 85 kts | 207° |
| 2026-05-07 15:49 | 52.33734 | 21.21442 | 1507 ft | 93 kts | 219° |
| 2026-05-07 15:49 | 52.33311 | 21.20628 | 1505 ft | 96 kts | 242° |
| 2026-05-07 15:50 | 52.32922 | 21.19741 | 1496 ft | 95 kts | 243° |
| 2026-05-07 15:50 | 52.32611 | 21.18804 | 1492 ft | 93 kts | 252° |
| 2026-05-07 15:50 | 52.32385 | 21.17840 | 1500 ft | 90 kts | 258° |
| 2026-05-07 15:50 | 52.32194 | 21.16881 | 1510 ft | 89 kts | 256° |
| 2026-05-07 15:51 | 52.31979 | 21.15932 | 1512 ft | 89 kts | 255° |
| 2026-05-07 15:51 | 52.31744 | 21.14992 | 1511 ft | 90 kts | 253° |
| 2026-05-07 15:51 | 52.31544 | 21.14035 | 1511 ft | 89 kts | 258° |
| 2026-05-07 15:51 | 52.31369 | 21.13059 | 1515 ft | 91 kts | 258° |
| 2026-05-07 15:52 | 52.31140 | 21.12058 | 1521 ft | 95 kts | 255° |
| 2026-05-07 15:52 | 52.30897 | 21.11042 | 1516 ft | 97 kts | 256° |
| 2026-05-07 15:52 | 52.30735 | 21.09983 | 1518 ft | 95 kts | 265° |
| 2026-05-07 15:52 | 52.30600 | 21.08948 | 1515 ft | 92 kts | 261° |
| 2026-05-07 15:53 | 52.30420 | 21.07951 | 1517 ft | 90 kts | 259° |
| 2026-05-07 15:53 | 52.30237 | 21.06978 | 1517 ft | 89 kts | 259° |
| 2026-05-07 15:53 | 52.30045 | 21.06028 | 1515 ft | 88 kts | 258° |
| 2026-05-07 15:53 | 52.29844 | 21.05069 | 1513 ft | 88 kts | 258° |
| 2026-05-07 15:54 | 52.29678 | 21.04120 | 1514 ft | 87 kts | 262° |
| 2026-05-07 15:54 | 52.29547 | 21.03160 | 1513 ft | 86 kts | 265° |
| 2026-05-07 15:54 | 52.29361 | 21.02211 | 1515 ft | 88 kts | 255° |
| 2026-05-07 15:54 | 52.29127 | 21.01283 | 1516 ft | 87 kts | 255° |
| 2026-05-07 15:55 | 52.28928 | 21.00351 | 1515 ft | 87 kts | 258° |
| 2026-05-07 15:55 | 52.28729 | 20.99431 | 1530 ft | 88 kts | 252° |
| 2026-05-07 15:55 | 52.28402 | 20.98529 | 1524 ft | 92 kts | 238° |
| 2026-05-07 15:55 | 52.28003 | 20.97728 | 1498 ft | 95 kts | 238° |
| 2026-05-07 15:56 | 52.27554 | 20.96900 | 1440 ft | 98 kts | 228° |
| 2026-05-07 15:56 | 52.27018 | 20.96218 | 1391 ft | 97 kts | 223° |
| 2026-05-07 15:56 | 52.26518 | 20.95515 | 1300 ft | 86 kts | 241° |
| 2026-05-07 15:56 | 52.26388 | 20.94680 | 1160 ft | 76 kts | 280° |
| 2026-05-07 15:57 | 52.26477 | 20.93844 | 961 ft | 76 kts | 288° |
| 2026-05-07 15:57 | 52.26589 | 20.93023 | 769 ft | 75 kts | 285° |
| 2026-05-07 15:57 | 52.26693 | 20.92251 | 639 ft | 67 kts | 287° |
| 2026-05-07 15:57 | 52.26804 | 20.91513 | 392 ft | 65 kts | 286° |
| 2026-05-07 15:58 | 52.26887 | 20.90920 | 350 ft | 41 kts | 283° |
| 2026-05-07 15:58 | 52.26930 | 20.90578 | 350 ft | 16 kts | 257° |
| 2026-05-07 15:58 | 52.26863 | 20.90550 | 350 ft | 8 kts | 153° |
| 2026-05-07 15:58 | 52.26826 | 20.90580 | 350 ft | 6 kts | 152° |
| 2026-05-07 15:59 | 52.26761 | 20.90636 | 350 ft | 13 kts | 150° |
| 2026-05-07 15:59 | 52.26682 | 20.90702 | 350 ft | 11 kts | 153° |
| 2026-05-07 15:59 | 52.26635 | 20.90694 | 350 ft | 4 kts | 275° |
| 2026-05-07 15:59 | 52.26642 | 20.90638 | 350 ft | 7 kts | 282° |
| 2026-05-07 16:00 | 52.26656 | 20.90533 | 350 ft | 8 kts | 282° |
| 2026-05-07 16:00 | 52.26664 | 20.90476 | 350 ft | 3 kts | 282° |
| 2026-05-07 16:00 | 52.26676 | 20.90384 | 350 ft | 12 kts | 285° |
| 2026-05-07 16:00 | 52.26697 | 20.90240 | 350 ft | 12 kts | 284° |
| 2026-05-07 16:01 | 52.26716 | 20.90106 | 350 ft | 11 kts | 283° |
| 2026-05-07 16:01 | 52.26738 | 20.90062 | 350 ft | 4 kts | 1° |
| 2026-05-07 16:01 | 52.26741 | 20.90047 | 350 ft | 0 kts | 196° |